CZFN/ZFN METAR and TAF weather

Enter ICAO airport designator
Station Type Date Time Source
CZFN METAR 2019/12/13 22:00 UTC NOAA

CZFN 132200Z 02009KT 15SM SKC M28/M32 A2995 RMK FROIN SLP161


Station Type Date Time Source
CZFN Decoded METAR 2019/12/13 22:00 UTC NOAA

Fort Norman Airport, Canada (CZFN) 64-55N 125-34W
Dec 13, 2019 - 05:00 PM EST / 2019.12.13 2200 UTC
Wind: from the NNE (020 degrees) at 10 MPH (9 KT):0
Visibility: 15 mile(s):0
Sky conditions: clear
Temperature: -18 F (-28 C)
Windchill: -38 F (-39 C):2
Dew Point: -25 F (-32 C)
Relative Humidity: 68%
Pressure (altimeter): 29.95 in. Hg (1014 hPa)
ob: CZFN 132200Z 02009KT 15SM SKC M28/M32 A2995 RMK FROIN SLP161
cycle: 22

Station Type Date Time Source
CZFN TAF UTC NOAA

Error!

Example: see airport list